In Rescue
 
Open Full Screen Window  High Contrast Mode
July 25, 2021 8:03 AM CDT
Weather Information
Wind Direction
  ---
Wind Speed
  00 kt (0 mph)
Wind Gust
  00 kt (0 mph)
Altimeter
30.00 in
Visibility
10 SM
Temperature
19° C
66° F
Dewpoint
16° C
61° F
Humidity
83%
1hr Rain Fall
00.00 in.
24hr Rain Fall
00.00 in.
Sky Condition
Clear
VFR

METAR KSYN 251303Z AUTO 00000KT 10SM CLR 19/16 A3000 RMK AO2 LTG DSNT S T01930161

FAA Disclaimer: The data displayed is for advisory purposes only and is not to be used for flight planning or operations.